Time;durP1;ratioP1;P1;durP2;ratioP2;P2;SDS_P1;SDS_P2;PMS_P1;PMS_P2;Temp;Humidity;BMP_temperature;BMP_pressure;BME280_temperature;BME280_humidity;BME280_pressure;Samples;Min_cycle;Max_cycle;Signal;HPM_P1;HPM_P2
2022/04/07 00:01:52;;;;;;;2.70;1.75;;;-0.90;99.90;;;;;;4973517;28;20075;-77
2022/04/07 00:04:17;;;;;;;4.75;1.70;;;-0.90;99.90;;;;;;4973507;28;20494;-77
2022/04/07 00:06:43;;;;;;;4.32;3.00;;;-0.90;99.90;;;;;;4973367;28;20069;-77
2022/04/07 00:09:09;;;;;;;2.08;1.80;;;-0.90;99.90;;;;;;4973698;28;20050;-77
2022/04/07 00:11:34;;;;;;;2.83;2.00;;;-0.90;99.90;;;;;;4973570;28;20058;-78
2022/04/07 00:14:00;;;;;;;5.40;2.50;;;-0.90;99.90;;;;;;4973280;28;20026;-77
2022/04/07 00:16:26;;;;;;;1.85;1.75;;;-1.00;99.90;;;;;;4971979;28;20026;-77
2022/04/07 00:18:52;;;;;;;2.63;1.73;;;-0.90;99.90;;;;;;4973320;28;20505;-74
2022/04/07 00:21:24;;;;;;;2.28;1.85;;;-1.00;99.90;;;;;;4973349;28;20474;-74
2022/04/07 00:23:53;;;;;;;2.42;2.03;;;-1.00;99.90;;;;;;4973176;28;20499;-73
2022/04/07 00:26:20;;;;;;;3.45;2.28;;;-1.10;99.90;;;;;;4973417;28;20022;-74
2022/04/07 00:28:45;;;;;;;2.60;2.15;;;-1.00;99.90;;;;;;4972970;28;20467;-72
2022/04/07 00:31:11;;;;;;;2.70;1.90;;;-1.00;99.90;;;;;;4973267;28;20027;-72
2022/04/07 00:33:38;;;;;;;2.85;1.70;;;-1.00;99.90;;;;;;4972987;28;20023;-72
2022/04/07 00:36:05;;;;;;;2.95;1.83;;;-1.00;99.90;;;;;;4973000;28;20113;-72
2022/04/07 00:38:31;;;;;;;3.20;1.85;;;-1.10;99.90;;;;;;4972806;28;20055;-72
2022/04/07 00:40:57;;;;;;;3.53;2.28;;;-1.10;99.90;;;;;;4971828;28;20434;-73
2022/04/07 00:43:33;;;;;;;2.85;2.00;;;-1.10;99.90;;;;;;4973027;28;20121;-73
2022/04/07 00:46:00;;;;;;;3.47;1.80;;;-1.10;99.90;;;;;;4973314;28;20038;-72
2022/04/07 00:48:27;;;;;;;3.28;1.70;;;-1.10;99.90;;;;;;4972987;28;20023;-72
2022/04/07 00:50:56;;;;;;;3.63;1.90;;;-1.20;99.90;;;;;;4972969;28;20037;-72
2022/04/07 00:53:23;;;;;;;1.77;1.67;;;-1.20;99.90;;;;;;4973078;28;20378;-73
2022/04/07 00:55:53;;;;;;;1.70;1.60;;;-1.20;99.90;;;;;;4972920;28;20030;-73
2022/04/07 00:58:19;;;;;;;2.10;1.88;;;-1.20;99.90;;;;;;4972926;28;20454;-72
2022/04/07 01:00:46;;;;;;;2.97;1.88;;;-1.20;99.90;;;;;;4973241;28;20113;-76
2022/04/07 01:03:13;;;;;;;2.17;1.88;;;-1.20;99.90;;;;;;4972891;28;20106;-79
2022/04/07 01:05:38;;;;;;;3.35;1.70;;;-1.20;99.90;;;;;;4973185;28;20486;-78
2022/04/07 01:08:06;;;;;;;2.55;1.65;;;-1.30;99.90;;;;;;4972860;28;20019;-79
2022/04/07 01:10:32;;;;;;;2.25;1.48;;;-1.30;99.90;;;;;;4972710;28;20438;-78
2022/04/07 01:12:58;;;;;;;2.95;2.00;;;-1.40;99.90;;;;;;4972915;28;20027;-78
2022/04/07 01:15:24;;;;;;;2.10;1.65;;;-1.50;99.90;;;;;;4972844;28;20037;-78
2022/04/07 01:17:49;;;;;;;2.40;1.70;;;-1.50;99.90;;;;;;4972673;28;20085;-78
2022/04/07 01:20:15;;;;;;;4.38;2.10;;;-1.50;99.90;;;;;;4972778;28;20023;-76
2022/04/07 01:22:44;;;;;;;2.10;1.95;;;-1.60;99.90;;;;;;4972782;28;20027;-72
2022/04/07 01:25:10;;;;;;;2.17;1.80;;;-1.60;99.90;;;;;;4972685;28;20110;-74
2022/04/07 01:27:36;;;;;;;2.75;1.75;;;-1.60;99.90;;;;;;4972772;28;20019;-74
2022/04/07 01:30:08;;;;;;;2.55;1.90;;;-1.60;99.90;;;;;;4972779;28;20038;-74
2022/04/07 01:32:41;;;;;;;2.90;1.70;;;-1.60;99.90;;;;;;4972494;28;20026;-75
2022/04/07 01:35:08;;;;;;;2.38;1.92;;;-1.60;99.90;;;;;;4972970;28;20027;-74
2022/04/07 01:37:36;;;;;;;2.20;2.00;;;-1.70;99.90;;;;;;4972136;28;20062;-73
2022/04/07 01:40:04;;;;;;;2.20;2.00;;;-1.70;99.90;;;;;;4973438;28;20096;-73
2022/04/07 01:42:33;;;;;;;4.05;2.00;;;-1.70;99.90;;;;;;4976192;28;20063;-73
2022/04/07 01:45:02;;;;;;;4.95;1.88;;;-1.70;99.90;;;;;;4976291;28;20042;-74
2022/04/07 01:47:29;;;;;;;2.40;1.60;;;-1.80;99.90;;;;;;4976154;28;20027;-74
2022/04/07 01:50:08;;;;;;;2.15;1.63;;;-1.80;99.90;;;;;;4975995;28;20031;-74
2022/04/07 01:52:36;;;;;;;2.80;2.27;;;-1.80;99.90;;;;;;4975995;28;20045;-72
2022/04/07 01:55:03;;;;;;;3.60;1.90;;;-1.80;99.90;;;;;;4976165;28;20254;-72
2022/04/07 01:57:30;;;;;;;3.17;1.83;;;-1.90;99.90;;;;;;4975668;28;20035;-73
2022/04/07 01:59:58;;;;;;;4.63;1.88;;;-1.80;99.90;;;;;;4975937;28;20023;-73
2022/04/07 02:02:24;;;;;;;2.55;2.10;;;-1.80;99.90;;;;;;4975930;28;20113;-73
2022/04/07 02:04:57;;;;;;;4.82;2.25;;;-1.80;99.90;;;;;;4975788;28;20573;-73
2022/04/07 02:07:29;;;;;;;2.08;1.88;;;-1.90;99.90;;;;;;4975659;28;20202;-74
2022/04/07 02:09:55;;;;;;;3.45;1.60;;;-1.90;99.90;;;;;;4975658;28;20038;-73
2022/04/07 02:12:21;;;;;;;3.75;2.10;;;-2.00;99.90;;;;;;4975487;28;20022;-74
2022/04/07 02:14:50;;;;;;;2.85;1.90;;;-2.00;99.90;;;;;;4975392;28;20030;-74
2022/04/07 02:17:20;;;;;;;1.80;1.70;;;-2.00;99.90;;;;;;4975516;28;20027;-74
2022/04/07 02:19:50;;;;;;;4.00;1.92;;;-1.90;99.90;;;;;;4975274;28;20058;-73
2022/04/07 02:22:17;;;;;;;2.35;2.15;;;-2.00;99.90;;;;;;4975764;28;20035;-73
2022/04/07 02:56:12;;;;;;;4.65;1.83;;;-1.90;99.90;;;;;;4964126;28;20574;-69
2022/04/07 02:58:38;;;;;;;2.33;2.10;;;-2.00;99.90;;;;;;4974990;28;20069;-72
2022/04/07 03:01:03;;;;;;;3.05;2.10;;;-2.00;99.90;;;;;;4974793;28;20062;-72
2022/04/07 03:37:09;;;;;;;2.50;2.03;;;-2.20;99.90;;;;;;5722862;23;20414;-65
2022/04/07 03:39:35;;;;;;;3.10;2.10;;;-2.20;99.90;;;;;;4973926;28;20030;-65
2022/04/07 03:42:00;;;;;;;2.72;2.40;;;-2.10;99.90;;;;;;4956475;28;20026;-65
2022/04/07 03:44:26;;;;;;;3.55;2.05;;;-2.10;99.90;;;;;;4974006;28;20066;-65
2022/04/07 03:46:52;;;;;;;3.67;2.17;;;-2.10;99.90;;;;;;4971896;28;20042;-65
2022/04/07 03:49:18;;;;;;;3.83;1.95;;;-2.10;99.90;;;;;;4940036;28;20360;-65
2022/04/07 03:51:44;;;;;;;2.72;2.00;;;-2.10;99.90;;;;;;4935550;29;20035;-65
2022/04/07 03:54:10;;;;;;;3.03;2.33;;;-2.10;99.90;;;;;;4935247;29;20039;-65
2022/04/07 03:56:36;;;;;;;2.70;2.25;;;-2.10;99.90;;;;;;4935685;29;20027;-66
2022/04/07 03:59:02;;;;;;;2.90;2.17;;;-2.20;99.90;;;;;;4935048;29;20050;-65
2022/04/07 04:01:28;;;;;;;3.05;2.55;;;-2.10;99.90;;;;;;4935318;29;20039;-65
2022/04/07 04:03:54;;;;;;;3.10;2.28;;;-2.20;99.90;;;;;;4934819;29;20040;-65
2022/04/07 04:06:20;;;;;;;3.15;2.70;;;-2.20;99.90;;;;;;4935227;29;20031;-66
2022/04/07 04:08:46;;;;;;;4.97;2.92;;;-2.30;99.90;;;;;;4935208;29;20511;-66
2022/04/07 04:11:12;;;;;;;3.85;2.83;;;-2.30;99.90;;;;;;4935000;29;20542;-66
2022/04/07 04:13:39;;;;;;;3.28;2.63;;;-2.30;99.90;;;;;;4935074;29;20038;-66
2022/04/07 04:16:05;;;;;;;3.67;2.38;;;-2.30;99.90;;;;;;4934847;29;20507;-66
2022/04/07 04:18:31;;;;;;;3.63;3.15;;;-2.40;99.90;;;;;;4935235;29;20035;-66
2022/04/07 04:20:57;;;;;;;4.15;3.05;;;-2.50;99.90;;;;;;4935024;29;20074;-65
2022/04/07 04:23:23;;;;;;;4.20;2.85;;;-2.50;99.90;;;;;;4934789;29;20024;-65
2022/04/07 04:25:49;;;;;;;4.07;2.65;;;-2.50;99.90;;;;;;4917785;29;20032;-65
2022/04/07 04:28:15;;;;;;;4.90;2.70;;;-2.50;99.90;;;;;;4934681;29;20107;-66
2022/04/07 04:30:41;;;;;;;4.35;3.03;;;-2.50;99.90;;;;;;4935111;29;20111;-65
2022/04/07 04:33:07;;;;;;;4.93;3.05;;;-2.50;99.90;;;;;;4933321;29;20387;-66
2022/04/07 04:35:33;;;;;;;5.22;3.03;;;-2.60;99.90;;;;;;4934771;29;20020;-68
2022/04/07 04:37:59;;;;;;;3.92;2.75;;;-2.60;99.90;;;;;;4934295;29;20559;-65
2022/04/07 04:40:24;;;;;;;4.40;2.92;;;-2.60;99.90;;;;;;4934999;29;20136;-66
2022/04/07 04:42:50;;;;;;;9.20;3.42;;;-2.50;99.90;;;;;;4934810;29;20502;-66
2022/04/07 04:45:16;;;;;;;3.25;2.58;;;-1.90;99.90;;;;;;4934155;29;20372;-65
2022/04/07 04:47:42;;;;;;;3.83;3.25;;;-1.90;99.90;;;;;;4934422;29;20431;-66
2022/04/07 04:50:08;;;;;;;4.63;2.78;;;-2.10;99.90;;;;;;4966648;28;20042;-65
2022/04/07 04:52:34;;;;;;;3.30;3.00;;;-2.20;99.90;;;;;;4966607;28;20023;-66
2022/04/07 04:55:00;;;;;;;3.65;2.90;;;-2.30;99.90;;;;;;4965264;28;20545;-66
2022/04/07 04:57:27;;;;;;;3.28;2.25;;;-2.40;99.90;;;;;;4971699;28;20030;-65
2022/04/07 04:59:53;;;;;;;2.10;1.90;;;-2.60;99.90;;;;;;4965896;28;20471;-67
2022/04/07 05:02:19;;;;;;;3.72;2.80;;;-2.60;99.90;;;;;;4964817;28;20035;-65
2022/04/07 05:04:45;;;;;;;5.53;2.90;;;-2.70;99.90;;;;;;4968182;28;20094;-65
2022/04/07 05:07:10;;;;;;;3.65;2.80;;;-2.80;99.90;;;;;;4971578;28;20027;-64
2022/04/07 05:09:38;;;;;;;3.72;2.55;;;-2.90;99.90;;;;;;4969596;28;20035;-64
2022/04/07 05:12:05;;;;;;;3.97;2.67;;;-2.80;99.90;;;;;;4968987;28;20034;-65
2022/04/07 05:14:30;;;;;;;9.18;3.40;;;-2.80;99.90;;;;;;4969345;28;20030;-65
2022/04/07 05:16:56;;;;;;;6.70;3.30;;;-2.90;99.90;;;;;;4975907;28;20019;-66
2022/04/07 05:19:22;;;;;;;5.68;3.13;;;-2.90;99.90;;;;;;4973047;28;20458;-68
2022/04/07 05:21:50;;;;;;;4.63;3.20;;;-2.90;99.90;;;;;;4976502;28;20023;-67
2022/04/07 05:24:17;;;;;;;7.15;3.00;;;-2.80;99.90;;;;;;4976091;28;20430;-64
2022/04/07 05:26:47;;;;;;;6.28;3.25;;;-2.90;99.90;;;;;;4975833;28;20046;-65
2022/04/07 05:29:13;;;;;;;3.80;2.80;;;-2.80;99.90;;;;;;4976091;28;20493;-66
2022/04/07 05:31:39;;;;;;;4.22;3.13;;;-2.70;99.90;;;;;;4976232;28;20042;-66
2022/04/07 05:34:04;;;;;;;3.85;3.15;;;-2.80;99.90;;;;;;4975951;28;20069;-66
2022/04/07 05:36:31;;;;;;;5.70;3.33;;;-2.90;99.90;;;;;;4975636;28;20030;-66
2022/04/07 05:38:57;;;;;;;4.25;3.00;;;-2.90;99.90;;;;;;4976055;28;20050;-66
2022/04/07 05:41:22;;;;;;;6.03;3.22;;;-2.90;99.90;;;;;;4975983;28;20091;-66
2022/04/07 05:43:48;;;;;;;4.95;3.08;;;-2.80;99.90;;;;;;4975976;28;20035;-66
2022/04/07 05:46:14;;;;;;;4.75;3.60;;;-2.80;99.90;;;;;;4976072;28;20034;-66
2022/04/07 05:48:39;;;;;;;3.40;2.80;;;-2.80;99.90;;;;;;4975778;28;20027;-66
2022/04/07 05:51:05;;;;;;;6.82;3.00;;;-2.40;99.90;;;;;;4975813;28;20138;-66
2022/04/07 05:53:31;;;;;;;3.80;2.90;;;-1.80;99.90;;;;;;4976034;28;20023;-66
2022/04/07 05:56:00;;;;;;;6.45;2.83;;;-2.00;99.90;;;;;;4975932;28;20055;-68
2022/04/07 05:58:26;;;;;;;3.78;2.67;;;-2.20;99.90;;;;;;4975729;28;20041;-68
2022/04/07 06:00:52;;;;;;;3.92;2.47;;;-2.30;99.90;;;;;;4976061;28;20463;-66
2022/04/07 06:03:18;;;;;;;5.00;2.70;;;-1.30;99.90;;;;;;4975448;28;20027;-68
2022/04/07 06:05:44;;;;;;;5.47;2.50;;;-1.50;99.90;;;;;;4975977;28;20031;-68
2022/04/07 06:08:10;;;;;;;3.42;2.67;;;-1.80;99.90;;;;;;4975704;28;20043;-68
2022/04/07 06:10:36;;;;;;;4.68;2.95;;;-2.00;99.90;;;;;;4975615;28;20152;-67
2022/04/07 06:13:02;;;;;;;5.22;2.85;;;-2.20;99.90;;;;;;4975395;28;20118;-68
2022/04/07 06:15:29;;;;;;;3.97;2.90;;;-2.20;99.90;;;;;;4975766;28;20029;-68
2022/04/07 06:17:55;;;;;;;6.25;2.90;;;-2.30;99.90;;;;;;4975369;28;20035;-67
2022/04/07 06:20:21;;;;;;;3.78;2.60;;;-2.40;99.90;;;;;;4975557;28;20093;-70
2022/04/07 06:22:48;;;;;;;4.10;2.60;;;-2.40;99.90;;;;;;4974113;28;20466;-67
2022/04/07 06:25:14;;;;;;;3.60;2.53;;;-2.40;99.90;;;;;;4975105;28;20118;-70
2022/04/07 06:27:42;;;;;;;2.65;2.35;;;-2.40;99.90;;;;;;4975267;28;20053;-68
2022/04/07 06:30:10;;;;;;;3.45;2.50;;;-2.50;99.90;;;;;;4975093;28;20073;-67
2022/04/07 06:32:37;;;;;;;4.00;2.45;;;-2.50;99.90;;;;;;4975235;28;20034;-67
2022/04/07 06:35:03;;;;;;;4.07;2.50;;;-2.60;99.90;;;;;;4975330;28;20023;-67
2022/04/07 06:37:29;;;;;;;3.05;2.75;;;-2.70;99.90;;;;;;4974484;28;20047;-68
2022/04/07 06:40:03;;;;;;;4.25;2.60;;;-2.70;99.90;;;;;;4975076;28;20433;-71
2022/04/07 06:42:28;;;;;;;2.65;2.40;;;-2.60;99.90;;;;;;4975083;28;20100;-70
2022/04/07 06:44:57;;;;;;;3.42;2.30;;;-2.60;99.90;;;;;;4974785;28;20086;-70
2022/04/07 06:47:24;;;;;;;2.75;2.42;;;-2.60;99.90;;;;;;4974921;28;20030;-70
2022/04/07 06:49:50;;;;;;;4.72;2.60;;;-2.60;99.90;;;;;;4974514;28;20487;-68
2022/04/07 06:52:17;;;;;;;5.22;2.85;;;-2.60;99.90;;;;;;4974705;28;20382;-68
2022/04/07 06:54:43;;;;;;;5.75;2.50;;;-2.40;99.90;;;;;;4974487;28;20474;-68
2022/04/07 06:57:09;;;;;;;3.75;2.40;;;-2.20;99.90;;;;;;4974644;28;20082;-68
2022/04/07 06:59:35;;;;;;;4.60;2.00;;;-1.70;99.90;;;;;;4974699;28;20081;-68
2022/04/07 07:02:01;;;;;;;3.78;2.40;;;-1.60;99.90;;;;;;4974632;28;20022;-68
2022/04/07 07:04:26;;;;;;;2.30;2.08;;;-1.30;99.90;;;;;;4961028;28;20106;-70
2022/04/07 07:06:52;;;;;;;3.95;2.50;;;-1.30;99.90;;;;;;4954249;28;20098;-69
2022/04/07 07:09:18;;;;;;;4.95;2.58;;;-1.60;99.90;;;;;;4947526;29;20079;-70
2022/04/07 07:11:43;;;;;;;2.13;1.90;;;-1.80;99.90;;;;;;4945691;29;20126;-70
2022/04/07 07:14:09;;;;;;;6.68;2.50;;;-1.90;99.90;;;;;;4940151;29;20070;-69
2022/04/07 07:16:35;;;;;;;9.32;2.33;;;-2.10;99.90;;;;;;4950987;29;20037;-69
2022/04/07 07:19:00;;;;;;;3.15;2.40;;;-2.10;99.90;;;;;;4939912;29;20027;-70
2022/04/07 07:21:26;;;;;;;2.88;2.17;;;-2.00;99.90;;;;;;4946487;28;20034;-70
2022/04/07 07:23:52;;;;;;;5.03;2.60;;;-2.10;99.90;;;;;;4945123;28;20053;-66
2022/04/07 07:26:18;;;;;;;3.97;2.20;;;-2.10;99.90;;;;;;4967656;28;20037;-70
2022/04/07 07:28:43;;;;;;;2.45;1.98;;;-2.00;99.90;;;;;;4971163;28;20082;-69
2022/04/07 07:31:09;;;;;;;1.55;1.42;;;-1.90;99.90;;;;;;4947178;29;20031;-69
2022/04/07 07:33:35;;;;;;;3.63;2.22;;;-1.90;99.90;;;;;;4944053;29;20023;-67
2022/04/07 07:36:00;;;;;;;3.60;2.42;;;-2.00;99.90;;;;;;4940297;29;20119;-65
2022/04/07 07:38:26;;;;;;;4.65;2.45;;;-2.00;99.90;;;;;;4949795;28;20055;-64
2022/04/07 07:40:52;;;;;;;3.55;2.58;;;-2.00;99.90;;;;;;4938620;29;20445;-65
2022/04/07 07:43:17;;;;;;;3.90;2.25;;;-1.90;99.90;;;;;;4946767;29;20549;-67
2022/04/07 07:45:43;;;;;;;1.80;1.55;;;-1.90;99.90;;;;;;4945016;29;20181;-67
2022/04/07 07:48:09;;;;;;;3.50;2.25;;;-2.00;99.90;;;;;;4938564;29;20063;-67
2022/04/07 07:50:38;;;;;;;3.47;2.50;;;-2.10;99.90;;;;;;4935993;29;20027;-66
2022/04/07 07:53:04;;;;;;;2.75;2.10;;;-2.00;99.90;;;;;;4948555;28;20053;-69
2022/04/07 07:55:29;;;;;;;3.03;2.38;;;-2.10;99.90;;;;;;4943197;29;20071;-70
2022/04/07 07:57:55;;;;;;;3.47;2.28;;;-2.20;99.90;;;;;;4941987;28;20032;-70
2022/04/07 08:00:23;;;;;;;2.30;2.10;;;-2.10;99.90;;;;;;4950017;29;20020;-70
2022/04/07 08:02:49;;;;;;;3.20;2.10;;;-2.00;99.90;;;;;;4950994;28;20094;-71
2022/04/07 08:05:15;;;;;;;4.85;2.40;;;-2.10;99.90;;;;;;4940810;29;20530;-70
2022/04/07 08:07:42;;;;;;;2.20;1.95;;;-2.00;99.90;;;;;;4943812;28;20099;-70
2022/04/07 08:10:08;;;;;;;2.30;2.03;;;-1.90;99.90;;;;;;4947933;29;20051;-69
2022/04/07 08:12:35;;;;;;;3.65;2.30;;;-1.90;99.90;;;;;;4948899;28;20035;-68
2022/04/07 08:15:01;;;;;;;2.25;2.05;;;-1.90;99.90;;;;;;4938937;29;20149;-65
2022/04/07 08:17:27;;;;;;;2.83;2.40;;;-1.20;99.90;;;;;;4945403;28;20034;-64
2022/04/07 08:19:52;;;;;;;2.53;2.15;;;0.00;99.90;;;;;;4945731;29;20387;-65
2022/04/07 08:22:18;;;;;;;2.95;1.95;;;1.00;99.90;;;;;;4953332;28;20043;-65
2022/04/07 08:24:44;;;;;;;4.60;2.10;;;0.20;99.90;;;;;;4937210;28;20483;-65
2022/04/07 08:27:09;;;;;;;2.80;2.22;;;-0.40;99.90;;;;;;4951920;29;20054;-65
2022/04/07 08:29:35;;;;;;;3.90;2.30;;;-0.70;99.90;;;;;;4944432;29;20111;-65
2022/04/07 08:32:02;;;;;;;2.60;1.63;;;-1.00;99.90;;;;;;4946982;29;20050;-65
2022/04/07 08:34:28;;;;;;;3.33;2.10;;;-1.30;99.90;;;;;;4936946;29;20103;-65
2022/04/07 08:36:54;;;;;;;2.85;1.90;;;-1.40;99.90;;;;;;4933255;29;20045;-65
2022/04/07 08:39:20;;;;;;;3.80;2.33;;;-1.40;99.90;;;;;;4934502;29;20046;-65
2022/04/07 08:41:47;;;;;;;2.47;2.08;;;-1.40;99.90;;;;;;4934568;29;20087;-65
2022/04/07 08:44:17;;;;;;;5.00;2.30;;;-1.50;99.90;;;;;;4934133;29;20036;-65
2022/04/07 08:46:56;;;;;;;5.28;2.33;;;-1.50;99.90;;;;;;4934900;29;20056;-65
2022/04/07 08:49:23;;;;;;;3.35;2.20;;;-1.50;99.90;;;;;;4934540;29;20064;-65
2022/04/07 08:51:53;;;;;;;2.97;2.30;;;-1.60;99.90;;;;;;4938467;29;20472;-65
2022/04/07 08:54:19;;;;;;;2.40;1.83;;;-1.60;99.90;;;;;;4938675;29;20126;-65
2022/04/07 08:56:46;;;;;;;5.10;2.42;;;-1.50;99.90;;;;;;4938371;29;20059;-65
2022/04/07 08:59:12;;;;;;;6.53;2.20;;;-1.50;99.90;;;;;;4938436;29;20028;-65
2022/04/07 09:01:38;;;;;;;2.28;2.08;;;-1.50;99.90;;;;;;4938301;29;20503;-65
2022/04/07 09:04:04;;;;;;;5.63;1.67;;;-1.50;99.90;;;;;;4937915;29;20484;-65
2022/04/07 09:06:33;;;;;;;2.10;1.77;;;-1.40;99.90;;;;;;4938073;29;20039;-64
2022/04/07 09:09:22;;;;;;;4.90;2.15;;;-0.70;99.90;;;;;;4938068;29;20020;-67
2022/04/07 09:11:54;;;;;;;2.88;2.25;;;0.10;99.90;;;;;;4975519;28;20023;-67
2022/04/07 09:14:19;;;;;;;2.20;1.83;;;-0.40;99.90;;;;;;4976336;28;20014;-65
2022/04/07 09:16:45;;;;;;;2.08;1.92;;;-0.60;99.90;;;;;;4976682;28;20169;-65
2022/04/07 09:19:11;;;;;;;3.08;2.10;;;-0.80;99.90;;;;;;4976158;28;20030;-67
2022/04/07 09:21:37;;;;;;;2.25;2.03;;;-0.80;99.90;;;;;;4976468;28;20046;-68
2022/04/07 09:24:08;;;;;;;1.30;1.20;;;-0.10;99.90;;;;;;4976547;28;20042;-68
2022/04/07 09:26:42;;;;;;;3.45;1.90;;;-0.50;99.90;;;;;;4974966;28;20063;-67
2022/04/07 09:29:10;;;;;;;2.22;2.03;;;-0.70;99.90;;;;;;4976374;28;20050;-67
2022/04/07 09:31:49;;;;;;;5.20;1.90;;;-0.90;99.90;;;;;;4976668;28;20398;-67
2022/04/07 09:34:15;;;;;;;2.92;2.08;;;-0.90;99.90;;;;;;4976232;28;20034;-67
2022/04/07 09:36:40;;;;;;;2.20;1.65;;;-1.00;99.90;;;;;;4975944;28;20038;-67
2022/04/07 09:39:06;;;;;;;3.00;1.90;;;-1.00;99.90;;;;;;4975909;28;20073;-67
2022/04/07 09:41:32;;;;;;;2.55;1.92;;;-0.90;99.90;;;;;;4975893;28;20038;-67
2022/04/07 09:44:00;;;;;;;3.60;2.20;;;-1.00;99.90;;;;;;4975884;28;20386;-66
2022/04/07 09:46:34;;;;;;;4.80;2.10;;;-1.00;99.90;;;;;;4976026;28;20078;-67
2022/04/07 09:49:01;;;;;;;2.63;1.85;;;-1.00;99.90;;;;;;4975847;28;20031;-68
2022/04/07 09:51:28;;;;;;;1.88;1.70;;;-1.00;99.90;;;;;;4975061;28;20030;-70
2022/04/07 09:53:57;;;;;;;3.60;1.83;;;-1.00;99.90;;;;;;4975766;28;20505;-69
2022/04/07 09:56:28;;;;;;;1.53;1.43;;;-1.10;99.90;;;;;;4975466;28;20426;-68
2022/04/07 09:58:55;;;;;;;2.88;1.88;;;-1.10;99.90;;;;;;4974902;28;20135;-69
2022/04/07 10:01:22;;;;;;;2.10;1.90;;;-1.10;99.90;;;;;;4974137;28;20049;-68
2022/04/07 10:03:50;;;;;;;2.47;1.70;;;-1.10;99.90;;;;;;4974969;28;20069;-68
2022/04/07 10:06:17;;;;;;;2.13;1.92;;;-1.10;99.90;;;;;;4969639;28;20051;-68
2022/04/07 10:08:46;;;;;;;2.85;1.27;;;-1.10;99.90;;;;;;4971465;28;20030;-69
2022/04/07 10:11:13;;;;;;;3.25;1.80;;;-1.10;99.90;;;;;;4957563;28;20042;-69
2022/04/07 10:13:41;;;;;;;2.92;1.83;;;-1.00;99.90;;;;;;4953005;28;20382;-69
2022/04/07 10:16:07;;;;;;;2.40;1.90;;;-1.10;99.90;;;;;;4955372;28;20019;-69
2022/04/07 10:18:54;;;;;;;2.42;2.03;;;-1.00;99.90;;;;;;4955853;28;20038;-70
2022/04/07 10:21:41;;;;;;;2.45;1.90;;;-0.90;99.90;;;;;;4962212;28;20024;-69
2022/04/07 10:24:33;;;;;;;1.73;1.60;;;-0.90;99.90;;;;;;4963331;28;20047;-70
2022/04/07 10:27:02;;;;;;;2.22;1.70;;;-0.90;99.90;;;;;;4955457;28;20085;-70
2022/04/07 10:29:29;;;;;;;2.15;1.60;;;-1.00;99.90;;;;;;4963031;28;20027;-70
2022/04/07 10:32:13;;;;;;;2.42;1.70;;;-1.00;99.90;;;;;;4974081;28;20031;-69
2022/04/07 10:34:51;;;;;;;2.28;1.80;;;-1.00;99.90;;;;;;4969287;28;20031;-69
2022/04/07 10:37:47;;;;;;;1.67;1.58;;;-1.00;99.90;;;;;;4974638;28;20046;-70
2022/04/07 10:40:38;;;;;;;3.97;2.42;;;-0.90;99.90;;;;;;4974861;28;20109;-70
2022/04/07 10:43:04;;;;;;;1.40;1.17;;;-1.00;99.90;;;;;;4972597;28;20027;-69
2022/04/07 10:45:37;;;;;;;1.70;1.60;;;-1.00;99.90;;;;;;4974587;28;20394;-69
2022/04/07 10:48:52;;;;;;;5.57;2.50;;;-1.00;99.90;;;;;;4971574;28;20033;-70
2022/04/07 10:51:18;;;;;;;1.85;1.60;;;-1.00;99.90;;;;;;4965794;28;20039;-71
2022/04/07 10:53:53;;;;;;;2.38;1.60;;;-0.90;99.90;;;;;;4974808;28;20018;-70
2022/04/07 10:56:24;;;;;;;1.77;1.67;;;-0.90;99.90;;;;;;4974697;28;20027;-70
2022/04/07 10:58:51;;;;;;;3.55;1.50;;;-0.90;99.90;;;;;;4974709;28;20034;-70
2022/04/07 11:01:29;;;;;;;1.80;1.63;;;-0.90;99.90;;;;;;4974539;28;20479;-70
2022/04/07 11:04:20;;;;;;;2.00;1.52;;;-0.80;99.90;;;;;;4974427;28;20035;-70
2022/04/07 11:07:04;;;;;;;;;;;-0.80;99.90;;;;;;4936634;29;20038;-70
2022/04/07 11:09:44;;;;;;;3.70;1.67;;;-0.90;99.90;;;;;;4963090;28;19960;-69
2022/04/07 11:12:11;;;;;;;3.80;1.67;;;-0.90;99.90;;;;;;4969810;28;20023;-68
2022/04/07 11:14:37;;;;;;;1.52;1.30;;;-0.90;99.90;;;;;;4966510;28;20026;-68
2022/04/07 11:17:08;;;;;;;3.70;1.60;;;-0.90;99.90;;;;;;4960389;28;20102;-69
2022/04/07 11:19:49;;;;;;;1.77;1.67;;;-0.80;99.90;;;;;;4949103;28;20378;-70
2022/04/07 11:22:17;;;;;;;1.77;1.67;;;-0.80;99.90;;;;;;4969353;28;20066;-69
2022/04/07 11:24:44;;;;;;;2.35;1.90;;;-0.80;99.90;;;;;;4969921;28;20037;-69
2022/04/07 11:27:36;;;;;;;1.70;1.60;;;-0.70;99.90;;;;;;4948320;29;20024;-69
2022/04/07 11:30:07;;;;;;;1.42;1.33;;;-0.70;99.90;;;;;;4933286;29;20522;-69
2022/04/07 11:32:32;;;;;;;2.53;1.65;;;-0.70;99.90;;;;;;4954387;28;20088;-69
2022/04/07 11:35:12;;;;;;;3.05;1.83;;;-0.70;99.90;;;;;;4953661;28;20098;-67
2022/04/07 11:37:42;;;;;;;1.67;1.58;;;-0.70;99.90;;;;;;4945204;28;20051;-67
2022/04/07 11:40:09;;;;;;;2.40;1.90;;;-0.70;99.90;;;;;;4947403;29;20027;-69
2022/04/07 11:42:35;;;;;;;1.50;1.40;;;-0.70;99.90;;;;;;4938167;28;20791;-68
2022/04/07 11:45:02;;;;;;;1.98;1.30;;;-0.60;99.90;;;;;;4956699;28;20490;-68
2022/04/07 11:47:33;;;;;;;2.15;1.50;;;-0.60;99.90;;;;;;4945264;29;20503;-68
2022/04/07 11:49:59;;;;;;;1.88;1.40;;;-0.60;99.90;;;;;;4945706;29;20062;-69
2022/04/07 11:52:30;;;;;;;2.53;1.60;;;-0.50;99.90;;;;;;4938635;28;20115;-68
2022/04/07 11:54:57;;;;;;;1.50;1.38;;;-0.50;99.90;;;;;;4953657;29;20093;-68
2022/04/07 11:57:25;;;;;;;1.80;1.70;;;-0.50;99.90;;;;;;4946768;28;20071;-68
2022/04/07 11:59:55;;;;;;;1.50;1.40;;;-0.50;99.90;;;;;;4934812;29;20547;-68
2022/04/07 12:02:22;;;;;;;1.60;1.50;;;-0.40;99.90;;;;;;4934919;29;20111;-66
2022/04/07 12:04:54;;;;;;;2.05;1.30;;;-0.40;99.90;;;;;;4934992;29;20036;-66
2022/04/07 12:07:21;;;;;;;1.92;1.58;;;-0.50;99.90;;;;;;4934809;29;20032;-67
2022/04/07 12:09:47;;;;;;;1.73;1.45;;;-0.50;99.90;;;;;;4935145;29;20079;-66
2022/04/07 12:12:13;;;;;;;1.92;1.50;;;-0.40;99.90;;;;;;4934962;29;20111;-67
2022/04/07 12:14:42;;;;;;;1.50;1.40;;;-0.40;99.90;;;;;;4935047;29;20150;-66
2022/04/07 12:17:09;;;;;;;4.53;1.75;;;-0.40;99.90;;;;;;4934908;29;20038;-66
2022/04/07 12:19:45;;;;;;;2.80;1.73;;;-0.40;99.90;;;;;;4934864;29;20032;-67
2022/04/07 12:22:12;;;;;;;2.17;1.40;;;-0.40;99.90;;;;;;4934842;29;20059;-67
2022/04/07 12:24:37;;;;;;;3.47;1.88;;;-0.40;99.90;;;;;;4934442;29;20046;-66
2022/04/07 12:27:04;;;;;;;3.35;1.55;;;-0.40;99.90;;;;;;4934684;29;20032;-66
2022/04/07 12:29:34;;;;;;;3.03;1.95;;;-0.40;99.90;;;;;;4934926;29;20483;-66
2022/04/07 12:32:10;;;;;;;1.73;1.42;;;-0.40;99.90;;;;;;4934904;29;20024;-66
2022/04/07 12:35:05;;;;;;;2.33;1.45;;;-0.30;99.90;;;;;;4934649;29;20119;-65
2022/04/07 12:37:39;;;;;;;2.30;1.70;;;-0.30;99.90;;;;;;4913034;29;20066;-68
2022/04/07 12:40:27;;;;;;;2.83;1.90;;;0.00;99.90;;;;;;4934681;29;20488;-68
2022/04/07 12:42:56;;;;;;;1.80;1.50;;;2.50;99.90;;;;;;4922549;28;20071;-68
2022/04/07 12:45:22;;;;;;;1.30;1.20;;;2.20;99.90;;;;;;4934374;29;20061;-68
2022/04/07 12:48:18;;;;;;;3.20;1.48;;;1.40;99.90;;;;;;4934728;29;20129;-68
2022/04/07 12:50:43;;;;;;;2.55;1.45;;;1.00;99.90;;;;;;4934570;29;20034;-68
2022/04/07 12:53:34;;;;;;;1.75;1.45;;;0.70;99.90;;;;;;4934664;29;20024;-68
2022/04/07 12:56:16;;;;;;;2.22;1.35;;;0.70;99.90;;;;;;4934883;29;20031;-68
2022/04/07 12:58:42;;;;;;;2.03;1.60;;;0.50;99.90;;;;;;4934350;29;20479;-68
2022/04/07 13:01:08;;;;;;;1.63;1.33;;;0.40;99.90;;;;;;4934449;29;20042;-68
2022/04/07 13:03:51;;;;;;;1.70;1.50;;;0.40;99.90;;;;;;4934243;29;20110;-68
2022/04/07 13:06:23;;;;;;;2.95;1.65;;;0.30;99.90;;;;;;4934406;29;20031;-68
2022/04/07 13:08:49;;;;;;;1.50;1.40;;;0.60;99.90;;;;;;4934528;29;20038;-68
2022/04/07 13:11:35;;;;;;;3.83;1.85;;;0.50;99.90;;;;;;4934641;29;20106;-68
2022/04/07 13:14:06;;;;;;;1.90;1.60;;;0.40;99.90;;;;;;4934649;29;20028;-68
2022/04/07 13:16:33;;;;;;;2.10;1.60;;;0.40;99.90;;;;;;4934266;29;20027;-68
2022/04/07 13:18:59;;;;;;;4.07;1.85;;;0.40;99.90;;;;;;4934334;29;20423;-69
2022/04/07 13:21:26;;;;;;;2.25;1.60;;;0.50;99.90;;;;;;4934508;29;20063;-68
2022/04/07 13:23:52;;;;;;;2.30;1.50;;;0.50;99.90;;;;;;4934347;29;20030;-68
2022/04/07 13:26:18;;;;;;;1.77;1.67;;;0.50;99.90;;;;;;4932943;29;20051;-68
2022/04/07 13:28:47;;;;;;;2.28;1.63;;;0.50;99.90;;;;;;4934181;29;20059;-68
2022/04/07 13:31:13;;;;;;;2.25;1.60;;;0.50;99.90;;;;;;4932997;29;20126;-68
2022/04/07 13:33:39;;;;;;;9.82;4.10;;;0.50;99.90;;;;;;4934293;29;20099;-68
2022/04/07 13:36:06;;;;;;;5.93;2.83;;;0.50;99.90;;;;;;4934922;29;20051;-68
2022/04/07 13:38:33;;;;;;;1.83;1.70;;;0.50;99.90;;;;;;4937514;29;20048;-68
2022/04/07 13:41:00;;;;;;;3.10;1.60;;;0.60;99.90;;;;;;4950703;28;20064;-69
2022/04/07 13:43:28;;;;;;;2.28;1.65;;;0.50;99.90;;;;;;4975944;28;20035;-68
2022/04/07 13:45:54;;;;;;;5.43;1.92;;;0.50;99.90;;;;;;4976491;28;20041;-68
2022/04/07 13:48:20;;;;;;;1.83;1.58;;;0.40;99.90;;;;;;4960185;28;20028;-68
2022/04/07 13:50:46;;;;;;;1.55;1.45;;;0.40;99.90;;;;;;4948537;28;20102;-68
2022/04/07 13:53:13;;;;;;;2.67;1.70;;;0.40;99.90;;;;;;4953127;28;20468;-68
2022/04/07 13:55:39;;;;;;;2.05;1.85;;;0.40;99.90;;;;;;4952615;29;20073;-68
2022/04/07 13:58:04;;;;;;;2.10;1.90;;;0.40;99.90;;;;;;4954592;28;20110;-68
2022/04/07 14:00:31;;;;;;;1.73;1.63;;;0.40;99.90;;;;;;4950561;28;20034;-68